Terminal Aerodrome Forecast
Issued by NWS

Home | Current Version | Previous Version | Text Only | Print | Product List | Glossary On
Versions: 1 2 3 4 5 6 7 8 9 10 11 12 13 14
000
FTUS43 KICT 151125
TAFSLN
TAF
KSLN 151125Z 1512/1612 35020G30KT P6SM SCT025 OVC060
      TEMPO 1512/1513 BKN025 OVC060
     FM151700 34020G28KT P6SM SCT150
     FM160100 34012KT P6SM SKC=

USA.gov is the U.S. government's official web portal to all federal, state and local government web resources and services.